Time;durP1;ratioP1;P1;durP2;ratioP2;P2;SDS_P1;SDS_P2;PMS_P1;PMS_P2;Temp;Humidity;BMP_temperature;BMP_pressure;BME280_temperature;BME280_humidity;BME280_pressure;Samples;Min_cycle;Max_cycle;Signal;HPM_P1;HPM_P2
2021/03/23 00:04:49;;;;;;;16.23;6.25;;;;;;;3.35;57.11;98250.44;10075126;29;20050;-79
2021/03/23 00:10:11;;;;;;;13.80;6.25;;;;;;;3.34;56.62;98250.97;10062878;29;20125;-79
2021/03/23 00:15:30;;;;;;;16.33;6.53;;;;;;;3.31;56.38;98247.25;10062447;29;20041;-79
2021/03/23 00:20:51;;;;;;;15.68;6.18;;;;;;;3.23;56.85;98249.19;10074076;29;20053;-79
2021/03/23 00:26:12;;;;;;;15.25;5.13;;;;;;;3.17;56.26;98249.28;10074858;29;20473;-80
2021/03/23 00:31:32;;;;;;;15.15;5.60;;;;;;;3.14;57.47;98244.84;10055535;29;20422;-79
2021/03/23 00:36:52;;;;;;;14.25;5.90;;;;;;;3.06;56.59;98246.75;10049898;29;20046;-79
2021/03/23 00:42:12;;;;;;;14.52;5.38;;;;;;;2.93;57.81;98248.78;10061917;29;20379;-79
2021/03/23 00:47:32;;;;;;;13.40;5.63;;;;;;;2.78;57.64;98238.28;10049247;29;20401;-78
2021/03/23 00:52:52;;;;;;;15.32;5.93;;;;;;;2.66;58.03;98245.28;10049271;29;20050;-80
2021/03/23 00:58:12;;;;;;;15.63;5.68;;;;;;;2.58;58.43;98240.38;10062220;29;20041;-80
2021/03/23 01:03:32;;;;;;;15.52;6.10;;;;;;;2.57;58.92;98243.69;10061759;29;20045;-80
2021/03/23 01:08:51;;;;;;;12.70;5.63;;;;;;;2.51;58.40;98245.78;10061473;29;20056;-80
2021/03/23 01:14:11;;;;;;;14.13;5.45;;;;;;;2.42;58.97;98238.69;10048651;29;20049;-80
2021/03/23 01:19:31;;;;;;;18.05;5.55;;;;;;;2.35;59.16;98242.06;10074087;29;20045;-80
2021/03/23 01:24:51;;;;;;;14.23;4.95;;;;;;;2.39;58.75;98231.47;10061518;29;20049;-80
2021/03/23 01:30:50;;;;;;;16.52;5.60;;;;;;;2.38;59.43;98235.50;10060887;29;20098;-80
2021/03/23 01:36:14;;;;;;;14.20;5.70;;;;;;;2.35;59.56;98247.56;10047845;29;20053;-80
2021/03/23 01:41:34;;;;;;;12.93;5.35;;;;;;;2.26;59.81;98236.97;10060493;29;20049;-80
2021/03/23 01:46:53;;;;;;;16.48;5.90;;;;;;;2.25;59.02;98240.97;10059810;29;20461;-80
2021/03/23 01:52:17;;;;;;;19.13;5.95;;;;;;;2.25;59.55;98238.97;10046850;29;20053;-80
2021/03/23 01:57:37;;;;;;;14.48;5.60;;;;;;;2.22;59.58;98237.28;10046129;29;20069;-80
2021/03/23 02:02:59;;;;;;;14.25;5.80;;;;;;;2.21;60.59;98235.75;10033631;29;20053;-80
2021/03/23 02:08:18;;;;;;;16.75;5.93;;;;;;;2.21;59.78;98233.00;10046292;29;20045;-80
2021/03/23 02:13:44;;;;;;;13.13;5.88;;;;;;;2.21;59.70;98233.00;10059298;29;20057;-80
2021/03/23 02:20:13;;;;;;;12.32;5.60;;;;;;;2.28;60.16;98228.91;10059225;29;20071;-80
2021/03/23 02:25:33;;;;;;;15.57;5.80;;;;;;;2.34;59.89;98229.56;10058819;29;20494;-80
2021/03/23 02:30:53;;;;;;;15.77;6.20;;;;;;;2.30;60.33;98240.13;10045937;29;20060;-80
2021/03/23 02:36:13;;;;;;;17.58;6.70;;;;;;;2.24;59.54;98228.50;10032935;29;20041;-80
2021/03/23 02:41:33;;;;;;;15.52;5.85;;;;;;;2.26;60.28;98225.94;10058657;29;20455;-80
2021/03/23 02:46:53;;;;;;;13.10;6.38;;;;;;;2.33;60.47;98224.59;10032875;29;20056;-80
2021/03/23 02:52:13;;;;;;;15.20;6.07;;;;;;;2.37;60.27;98223.00;10045137;29;20696;-80
2021/03/23 02:57:33;;;;;;;17.40;5.80;;;;;;;2.38;60.10;98221.72;10057839;29;20049;-80
2021/03/23 03:02:53;;;;;;;15.13;6.28;;;;;;;2.43;59.84;98225.66;10033250;29;20056;-80
2021/03/23 03:08:13;;;;;;;15.05;6.05;;;;;;;2.48;60.59;98224.81;10066002;29;20413;-79
2021/03/23 03:13:33;;;;;;;15.55;6.63;;;;;;;2.51;60.84;98226.50;10065668;29;20110;-80
2021/03/23 03:18:53;;;;;;;15.52;6.60;;;;;;;2.44;60.50;98236.16;10065443;29;20050;-79
2021/03/23 03:24:12;;;;;;;15.55;6.80;;;;;;;2.50;60.36;98238.78;10052232;29;20049;-79
2021/03/23 03:29:32;;;;;;;13.00;6.40;;;;;;;2.69;60.64;98244.22;10065252;29;20056;-80
2021/03/23 03:34:52;;;;;;;14.23;6.25;;;;;;;2.74;60.59;98246.13;10064536;29;20047;-79
2021/03/23 03:40:13;;;;;;;14.10;6.40;;;;;;;2.73;60.57;98244.66;10064632;29;20045;-80
2021/03/23 03:45:34;;;;;;;14.85;6.50;;;;;;;2.76;60.53;98236.06;10040996;29;20061;-80
2021/03/23 03:50:54;;;;;;;15.73;6.25;;;;;;;2.81;60.57;98240.75;10071549;29;20069;-80
2021/03/23 03:56:14;;;;;;;12.80;6.15;;;;;;;2.89;60.22;98246.34;10071599;29;20057;-80
2021/03/23 04:01:33;;;;;;;17.80;6.85;;;;;;;2.87;60.46;98254.41;10058519;29;20049;-80
2021/03/23 04:06:53;;;;;;;17.40;7.78;;;;;;;2.82;60.57;98236.69;10083432;29;20060;-79
2021/03/23 04:12:13;;;;;;;15.70;7.22;;;;;;;2.86;60.80;98247.41;10044311;29;20057;-79
2021/03/23 04:17:33;;;;;;;14.00;6.32;;;;;;;2.83;60.84;98243.69;10043405;29;20496;-80
2021/03/23 04:22:54;;;;;;;16.70;6.93;;;;;;;2.88;60.99;98242.84;10069991;29;20052;-79
2021/03/23 04:28:14;;;;;;;12.95;7.15;;;;;;;2.93;60.28;98246.78;10069720;29;20121;-80
2021/03/23 04:33:33;;;;;;;15.93;7.53;;;;;;;2.97;60.80;98247.19;10056894;29;20490;-80
2021/03/23 04:38:54;;;;;;;15.50;7.18;;;;;;;3.04;60.39;98241.03;10098847;29;20496;-80
2021/03/23 04:44:13;;;;;;;17.10;7.30;;;;;;;3.09;60.51;98247.72;10107450;29;20105;-80
2021/03/23 04:49:33;;;;;;;19.17;7.78;;;;;;;3.15;60.45;98249.09;10081353;29;20072;-80
2021/03/23 04:54:53;;;;;;;16.50;7.15;;;;;;;3.20;60.73;98252.28;10079134;29;20152;-80
2021/03/23 05:00:14;;;;;;;16.25;7.22;;;;;;;3.24;60.88;98258.94;10066892;29;20045;-79
2021/03/23 05:05:34;;;;;;;15.95;7.05;;;;;;;3.26;60.88;98255.66;10054800;29;20053;-80
2021/03/23 05:10:54;;;;;;;19.10;8.45;;;;;;;3.32;60.78;98270.09;10041609;29;20045;-80
2021/03/23 05:16:14;;;;;;;14.32;7.28;;;;;;;3.43;61.32;98275.38;10068085;29;20046;-80
2021/03/23 05:21:34;;;;;;;15.80;8.18;;;;;;;3.42;61.09;98271.13;10054034;29;20125;-79
2021/03/23 05:26:53;;;;;;;17.60;8.52;;;;;;;3.50;61.00;98276.75;10054930;29;20057;-80
2021/03/23 05:32:13;;;;;;;16.77;8.95;;;;;;;3.59;61.27;98277.03;10053088;29;20045;-80
2021/03/23 05:37:33;;;;;;;16.08;8.98;;;;;;;3.64;61.28;98281.69;10054146;29;20294;-80
2021/03/23 05:43:47;;;;;;;17.02;8.90;;;;;;;3.68;61.57;98279.34;10041207;29;20049;-80
2021/03/23 05:49:28;;;;;;;16.08;9.07;;;;;;;3.77;61.51;98285.72;10030950;29;20092;-80
2021/03/23 05:55:13;;;;;;;17.25;8.32;;;;;;;3.84;61.27;98291.28;10079737;29;20067;-80
2021/03/23 06:00:36;;;;;;;21.43;9.90;;;;;;;3.90;61.96;98288.41;10065536;29;20049;-80
2021/03/23 06:06:28;;;;;;;14.50;9.43;;;;;;;3.87;61.42;98295.03;10051645;29;20124;-80
2021/03/23 06:11:54;;;;;;;18.70;10.13;;;;;;;3.94;61.09;98299.88;10075334;29;20447;-80
2021/03/23 06:17:29;;;;;;;20.73;10.10;;;;;;;4.03;60.88;98308.44;10051272;29;20052;-80
2021/03/23 06:23:01;;;;;;;18.83;10.52;;;;;;;4.11;61.42;98308.53;10064083;29;20045;-81
2021/03/23 06:28:55;;;;;;;19.40;10.63;;;;;;;4.20;60.79;98321.88;10077318;29;20053;-80
2021/03/23 06:34:25;;;;;;;20.45;11.55;;;;;;;4.18;61.31;98327.19;10064183;29;20064;-80
2021/03/23 06:39:45;;;;;;;16.98;10.68;;;;;;;4.20;60.89;98327.41;10050405;29;20058;-80
2021/03/23 06:45:22;;;;;;;21.42;9.73;;;;;;;4.32;61.43;98334.16;10063365;29;20053;-80
2021/03/23 06:50:42;;;;;;;17.08;10.20;;;;;;;4.39;61.24;98329.97;10038873;29;20526;-80
2021/03/23 06:56:25;;;;;;;17.55;10.30;;;;;;;4.43;61.24;98335.16;10065931;29;20496;-80
2021/03/23 07:01:52;;;;;;;17.55;11.07;;;;;;;4.50;60.82;98340.03;10026776;29;20057;-81
2021/03/23 07:07:20;;;;;;;16.83;11.45;;;;;;;4.60;60.89;98343.78;10061349;29;20041;-81
2021/03/23 07:12:44;;;;;;;18.83;12.70;;;;;;;4.69;60.86;98337.78;10057793;29;20078;-80
2021/03/23 07:18:21;;;;;;;19.27;12.23;;;;;;;4.70;60.90;98338.53;10060519;29;20049;-81
2021/03/23 07:23:44;;;;;;;18.90;11.65;;;;;;;4.92;60.73;98351.06;10044921;29;20057;-80
2021/03/23 07:29:10;;;;;;;20.80;12.05;;;;;;;5.12;60.93;98356.56;10047183;29;20072;-80
2021/03/23 07:34:57;;;;;;;16.63;11.05;;;;;;;5.29;60.42;98358.88;10059324;29;20098;-80
2021/03/23 07:40:39;;;;;;;16.30;10.73;;;;;;;5.40;60.16;98363.38;10071822;29;20046;-82
2021/03/23 07:46:38;;;;;;;18.65;10.55;;;;;;;5.62;59.94;98367.56;10044943;29;20045;-80
2021/03/23 07:52:20;;;;;;;16.15;10.10;;;;;;;5.95;59.66;98363.84;9948179;29;20134;-80
2021/03/23 07:58:28;;;;;;;15.60;9.02;;;;;;;6.42;58.87;98362.69;10017960;29;20062;-80
2021/03/23 08:04:08;;;;;;;15.60;9.90;;;;;;;6.70;58.49;98374.94;10038456;29;20479;-80
2021/03/23 08:10:05;;;;;;;18.42;9.90;;;;;;;7.24;58.02;98383.97;10028750;29;20057;-79
2021/03/23 08:16:11;;;;;;;16.33;9.30;;;;;;;7.91;57.62;98378.81;10049639;29;20050;-80
2021/03/23 08:22:00;;;;;;;17.83;9.52;;;;;;;9.46;56.75;98390.63;10004063;29;20058;-80
2021/03/23 08:27:47;;;;;;;10.60;8.20;;;;;;;10.46;55.64;98383.88;10025538;29;20046;-80
2021/03/23 08:33:23;;;;;;;11.18;7.45;;;;;;;11.18;53.17;98377.53;10025985;29;20053;-80
2021/03/23 08:39:40;;;;;;;12.30;7.15;;;;;;;10.41;51.49;98391.19;10038801;29;20103;-81
2021/03/23 08:45:23;;;;;;;13.35;7.43;;;;;;;10.14;52.05;98387.63;10051922;29;20046;-80
2021/03/23 08:50:44;;;;;;;11.88;6.85;;;;;;;11.03;51.62;98380.59;10049825;29;20057;-80
2021/03/23 08:56:05;;;;;;;8.88;5.55;;;;;;;11.80;51.77;98391.22;10064230;29;20141;-80
2021/03/23 09:01:40;;;;;;;8.25;6.13;;;;;;;12.33;48.85;98392.19;10064050;29;20049;-80
2021/03/23 09:07:12;;;;;;;10.48;6.88;;;;;;;11.47;47.15;98393.63;10053570;29;20050;-81
2021/03/23 09:12:43;;;;;;;11.25;6.95;;;;;;;10.22;47.01;98385.50;10059972;29;20074;-80
2021/03/23 09:18:09;;;;;;;13.23;7.13;;;;;;;9.87;50.24;98390.38;10057610;29;20053;-80
2021/03/23 09:23:37;;;;;;;8.85;5.78;;;;;;;9.89;49.55;98388.47;10075254;29;20053;-81
2021/03/23 09:29:32;;;;;;;8.75;6.05;;;;;;;10.21;48.61;98386.78;10072275;29;20497;-81
2021/03/23 09:35:12;;;;;;;7.97;5.57;;;;;;;11.42;48.52;98373.03;10074260;29;20416;-80
2021/03/23 09:40:41;;;;;;;8.95;5.57;;;;;;;12.42;47.32;98379.50;10066302;29;20486;-79
2021/03/23 09:46:24;;;;;;;9.18;5.60;;;;;;;12.73;45.93;98371.13;10066615;29;20049;-80
2021/03/23 09:51:55;;;;;;;12.95;5.65;;;;;;;11.90;45.63;98377.22;10096538;29;20057;-79
2021/03/23 09:57:22;;;;;;;7.57;4.68;;;;;;;10.72;45.62;98379.63;10091834;29;20044;-82
2021/03/23 10:15:19;;;;;;;5.80;2.30;;;;;;;10.59;46.32;98378.66;11416800;23;20067;-84
2021/03/23 10:20:39;;;;;;;3.50;1.93;;;;;;;10.53;45.87;98380.25;10133102;29;20044;-77
2021/03/23 10:26:02;;;;;;;3.83;2.33;;;;;;;10.06;45.76;98370.25;10125453;29;20084;-81
2021/03/23 10:31:35;;;;;;;4.43;2.20;;;;;;;9.84;46.12;98381.09;10109720;29;20049;-76
2021/03/23 10:37:04;;;;;;;4.68;2.95;;;;;;;9.60;46.40;98388.22;10122557;29;20060;-79
2021/03/23 10:42:30;;;;;;;5.45;2.75;;;;;;;9.58;46.43;98395.69;10321392;23;20121;-80
2021/03/23 10:48:08;;;;;;;4.43;2.88;;;;;;;9.49;46.48;98407.50;10277505;23;20060;-80
2021/03/23 10:53:28;;;;;;;4.35;2.90;;;;;;;9.36;46.06;98411.31;10141799;29;20123;-79
2021/03/23 10:59:14;;;;;;;4.10;2.20;;;;;;;8.94;46.12;98406.47;10138765;29;20460;-79
2021/03/23 11:04:36;;;;;;;4.13;1.48;;;;;;;8.65;46.64;98406.09;10106581;29;20047;-80
2021/03/23 11:09:59;;;;;;;2.25;1.50;;;;;;;8.40;46.66;98400.53;10099200;29;20068;-79
2021/03/23 11:15:18;;;;;;;3.42;1.63;;;;;;;8.32;46.84;98406.09;10098785;29;20049;-79
2021/03/23 11:20:39;;;;;;;4.63;2.45;;;;;;;8.29;47.20;98401.63;10108687;29;20044;-79
2021/03/23 11:25:59;;;;;;;2.03;1.80;;;;;;;8.35;47.23;98395.91;10087942;29;20503;-78
2021/03/23 11:31:21;;;;;;;3.08;1.80;;;;;;;8.29;46.97;98400.91;10103301;29;20049;-78
2021/03/23 11:36:42;;;;;;;2.60;2.00;;;;;;;8.30;47.53;98408.69;10115801;29;20052;-79
2021/03/23 11:42:18;;;;;;;3.88;1.85;;;;;;;8.33;47.36;98395.69;10102858;29;20627;-79
2021/03/23 11:47:48;;;;;;;3.65;2.30;;;;;;;8.10;47.11;98406.19;10081993;29;20057;-80
2021/03/23 11:53:13;;;;;;;4.45;2.47;;;;;;;7.92;47.48;98400.50;10107680;29;20048;-78
2021/03/23 11:58:33;;;;;;;4.72;2.70;;;;;;;7.80;47.46;98398.69;10128498;29;20044;-79
2021/03/23 12:04:25;;;;;;;3.60;2.95;;;;;;;7.69;48.12;98400.56;10706271;23;20024;31
2021/03/23 12:09:53;;;;;;;3.83;2.53;;;;;;;7.74;47.92;98399.66;11517755;23;19911;-81
2021/03/23 13:06:15;;;;;;;3.33;2.15;;;;;;;10.21;45.22;98393.09;11281234;23;20064;-76
2021/03/23 13:11:35;;;;;;;3.70;2.60;;;;;;;9.99;44.98;98394.88;10073738;29;20045;-77
2021/03/23 13:16:56;;;;;;;5.03;3.15;;;;;;;9.50;45.35;98392.25;10087214;29;20057;-79
2021/03/23 13:22:19;;;;;;;5.65;4.05;;;;;;;9.02;45.79;98386.91;10062340;29;20140;-77
2021/03/23 13:27:39;;;;;;;4.75;3.78;;;;;;;8.70;46.07;98398.84;10061118;29;20057;-77
2021/03/23 13:38:54;;;;;;;8.68;5.00;;;;;;;8.30;46.47;98410.75;11973184;23;20060;-81
2021/03/23 14:03:56;;;;;;;15.63;7.28;;;;;;;7.99;47.79;98407.34;10296314;23;20060;-80
2021/03/23 14:09:41;;;;;;;9.15;6.53;;;;;;;7.97;48.07;98398.81;10102500;29;20504;-79
2021/03/23 14:15:01;;;;;;;8.23;6.90;;;;;;;8.18;48.14;98396.50;10064227;29;20048;-78
2021/03/23 14:20:22;;;;;;;8.05;6.57;;;;;;;8.31;48.01;98387.19;10063265;29;20049;-79
2021/03/23 14:25:51;;;;;;;8.05;7.22;;;;;;;8.42;48.61;98380.47;10072070;29;20049;-79
2021/03/23 14:31:11;;;;;;;9.05;7.65;;;;;;;8.60;47.67;98376.47;10063267;29;20068;-78
2021/03/23 14:36:34;;;;;;;10.88;8.00;;;;;;;8.79;47.45;98376.72;10050402;29;20037;-78
2021/03/23 14:41:53;;;;;;;10.25;8.35;;;;;;;8.89;47.67;98377.56;10062196;29;20049;-77
2021/03/23 14:47:19;;;;;;;9.10;7.88;;;;;;;8.77;47.60;98379.28;10033409;29;20082;-78
2021/03/23 14:52:42;;;;;;;13.70;7.78;;;;;;;8.69;47.82;98377.91;10020883;29;20046;-78
2021/03/23 14:58:01;;;;;;;9.45;8.23;;;;;;;8.41;48.40;98373.44;10036581;29;20053;-77
2021/03/23 15:03:21;;;;;;;10.60;8.20;;;;;;;8.07;47.93;98385.81;10070540;29;20061;-78
2021/03/23 15:08:49;;;;;;;8.75;7.85;;;;;;;7.87;49.01;98378.47;10057239;29;20049;-78
2021/03/23 15:14:10;;;;;;;9.73;8.25;;;;;;;7.69;48.92;98375.56;10072032;29;20045;-79
2021/03/23 15:19:30;;;;;;;10.68;7.78;;;;;;;7.64;48.99;98384.13;10096516;29;20105;-78
2021/03/23 15:24:52;;;;;;;9.77;7.70;;;;;;;7.61;48.64;98385.94;10070094;29;20071;-79
2021/03/23 15:30:18;;;;;;;9.52;7.82;;;;;;;7.50;49.33;98391.16;10060081;29;20045;-79
2021/03/23 15:35:38;;;;;;;9.32;7.85;;;;;;;7.38;49.62;98388.06;10071095;29;20068;-76
2021/03/23 15:42:03;;;;;;;10.48;7.22;;;;;;;7.22;49.79;98395.66;10077818;29;20053;-79
2021/03/23 15:47:23;;;;;;;7.68;6.57;;;;;;;7.20;49.87;98398.25;10097495;29;20059;-78
2021/03/23 15:53:32;;;;;;;10.82;7.03;;;;;;;7.16;50.50;98400.66;10116217;29;20053;-78
2021/03/23 15:58:51;;;;;;;10.90;7.03;;;;;;;7.03;50.04;98398.81;10123624;29;20052;-83
2021/03/23 16:04:11;;;;;;;7.57;6.70;;;;;;;6.94;50.84;98396.56;10119976;29;20043;-85
2021/03/23 16:09:35;;;;;;;6.88;5.60;;;;;;;6.90;50.47;98401.78;10096775;29;20036;-76
2021/03/23 16:14:55;;;;;;;7.60;5.53;;;;;;;6.86;50.99;98406.97;10114927;29;20060;-77
2021/03/23 16:20:16;;;;;;;7.68;4.80;;;;;;;6.80;51.06;98417.50;10114712;29;20044;-76
2021/03/23 16:25:38;;;;;;;6.35;5.15;;;;;;;6.72;51.23;98419.50;10102295;29;20056;-78
2021/03/23 16:30:57;;;;;;;7.72;4.88;;;;;;;6.64;51.63;98413.19;10101838;29;20044;-79
2021/03/23 16:36:17;;;;;;;11.15;5.03;;;;;;;6.58;51.58;98414.13;10115944;29;20056;-74
2021/03/23 16:41:43;;;;;;;10.70;5.13;;;;;;;6.53;51.90;98417.81;10100602;29;20048;-77
2021/03/23 16:47:07;;;;;;;6.25;4.75;;;;;;;6.48;52.23;98421.50;10088228;29;20049;-75
2021/03/23 16:52:29;;;;;;;5.60;4.75;;;;;;;6.46;52.14;98424.06;10127268;29;20385;-76
2021/03/23 16:57:50;;;;;;;6.75;4.60;;;;;;;6.43;52.74;98432.75;10113265;29;20104;-75
2021/03/23 17:03:16;;;;;;;9.82;5.07;;;;;;;6.35;52.61;98440.31;10113364;29;20408;-78
2021/03/23 17:09:05;;;;;;;7.50;4.90;;;;;;;6.29;52.70;98437.72;10112694;29;20053;-75
2021/03/23 17:14:26;;;;;;;10.50;5.35;;;;;;;6.28;52.92;98444.56;10114117;29;20060;-78
2021/03/23 17:19:46;;;;;;;7.70;5.50;;;;;;;6.23;52.89;98439.91;10128123;29;20417;-78
2021/03/23 17:30:59;;;;;;;11.30;5.55;;;;;;;6.09;53.41;98453.16;10779497;23;20075;-79
2021/03/23 17:36:20;;;;;;;6.90;5.28;;;;;;;6.11;53.34;98456.13;10138216;29;20036;-80
2021/03/23 17:41:40;;;;;;;6.50;4.95;;;;;;;6.10;53.70;98451.88;10138719;29;20059;-77
2021/03/23 17:47:09;;;;;;;8.10;5.70;;;;;;;6.12;54.04;98468.69;10146958;29;20035;-82
2021/03/23 17:52:29;;;;;;;7.43;5.20;;;;;;;6.09;54.20;98469.06;11718894;23;20110;-85
2021/03/23 17:57:50;;;;;;;8.88;5.22;;;;;;;6.05;54.13;98471.41;11835671;23;20044;-85
2021/03/23 18:03:21;;;;;;;7.05;4.72;;;;;;;6.08;53.96;98482.16;10151906;29;20045;-81
2021/03/23 18:08:41;;;;;;;7.85;5.10;;;;;;;6.08;53.75;98492.50;10123318;29;20068;-82
2021/03/23 18:14:02;;;;;;;8.70;5.53;;;;;;;6.04;54.18;98484.53;10125788;29;20048;-85
2021/03/23 18:19:22;;;;;;;6.85;5.07;;;;;;;5.99;54.19;98488.97;10144823;29;20048;-85
2021/03/23 18:24:45;;;;;;;8.18;5.57;;;;;;;5.96;55.07;98497.59;10899208;23;20064;-85
2021/03/23 18:36:51;;;;;;;9.15;6.30;;;;;;;5.96;54.43;98501.13;10143855;29;20036;-84
2021/03/23 18:42:15;;;;;;;10.88;6.00;;;;;;;5.94;55.17;98498.16;10099243;29;20045;-81
2021/03/23 18:47:34;;;;;;;11.27;6.10;;;;;;;5.96;55.10;98506.66;10090822;29;20133;-80
2021/03/23 18:52:54;;;;;;;10.48;7.15;;;;;;;5.95;55.42;98504.44;10072490;29;20052;-79
2021/03/23 18:58:22;;;;;;;10.75;7.43;;;;;;;5.93;55.12;98505.00;10678374;23;20044;31
2021/03/23 19:03:42;;;;;;;11.68;7.25;;;;;;;5.92;55.07;98500.75;10051978;29;20531;-79
2021/03/23 19:09:03;;;;;;;11.15;7.13;;;;;;;5.91;55.29;98507.56;10048163;29;20060;-80
2021/03/23 19:14:23;;;;;;;9.93;7.30;;;;;;;5.87;55.25;98509.91;10022884;29;20046;-82
2021/03/23 19:19:42;;;;;;;11.02;7.20;;;;;;;5.90;55.99;98511.63;10035811;29;20402;-81
2021/03/23 19:25:04;;;;;;;13.05;7.88;;;;;;;5.88;55.76;98511.38;10059858;29;20059;-82
2021/03/23 19:30:27;;;;;;;10.98;7.70;;;;;;;5.85;55.79;98511.75;10019631;29;20050;-80
2021/03/23 19:35:46;;;;;;;12.32;7.68;;;;;;;5.85;55.65;98520.78;10031594;29;20053;-78
2021/03/23 19:41:11;;;;;;;11.15;7.25;;;;;;;5.85;56.05;98517.28;10032949;29;20049;-77
2021/03/23 19:46:32;;;;;;;11.50;7.90;;;;;;;5.86;56.25;98530.59;10023172;29;20084;-79
2021/03/23 19:51:51;;;;;;;12.52;8.57;;;;;;;5.84;56.44;98532.41;10038892;29;20050;-79
2021/03/23 19:57:11;;;;;;;12.55;9.15;;;;;;;5.81;56.46;98527.97;10026426;29;20505;-77
2021/03/23 20:02:39;;;;;;;13.20;9.50;;;;;;;5.74;56.46;98521.09;10052454;29;20093;-76
2021/03/23 20:08:02;;;;;;;12.93;9.27;;;;;;;5.74;56.31;98529.41;10053205;29;20045;-76
2021/03/23 20:13:24;;;;;;;12.98;10.00;;;;;;;5.72;56.72;98521.63;10026859;29;20042;-77
2021/03/23 20:18:52;;;;;;;12.98;9.93;;;;;;;5.76;57.06;98537.91;10038650;29;20074;-76
2021/03/23 20:24:12;;;;;;;14.18;9.55;;;;;;;5.73;56.67;98522.38;10038545;29;20045;-76
2021/03/23 20:29:33;;;;;;;14.98;9.80;;;;;;;5.71;56.98;98536.78;10026174;29;20144;-76
2021/03/23 20:34:54;;;;;;;15.25;10.13;;;;;;;5.73;57.03;98541.78;10039141;29;20045;-75
2021/03/23 20:40:15;;;;;;;13.68;9.75;;;;;;;5.70;57.18;98540.09;10039147;29;20045;-76
2021/03/23 20:45:35;;;;;;;15.27;10.40;;;;;;;5.70;57.64;98531.78;10050581;29;20053;-76
2021/03/23 20:50:55;;;;;;;14.90;9.40;;;;;;;5.71;56.86;98533.25;10038528;29;20041;-76
2021/03/23 20:56:15;;;;;;;13.00;8.48;;;;;;;5.72;57.49;98535.50;10049765;29;20049;-75
2021/03/23 21:01:35;;;;;;;13.52;9.38;;;;;;;5.75;57.06;98536.44;10037718;29;20516;-76
2021/03/23 21:06:55;;;;;;;11.35;7.78;;;;;;;5.74;57.23;98540.47;10024452;29;20421;-76
2021/03/23 21:12:17;;;;;;;11.90;8.10;;;;;;;5.74;57.66;98535.69;10037327;29;20389;-76
2021/03/23 21:17:37;;;;;;;12.68;8.95;;;;;;;5.73;57.65;98528.66;10037571;29;20053;-76
2021/03/23 21:23:27;;;;;;;14.50;9.32;;;;;;;5.75;57.54;98539.19;10044129;29;20401;-75
2021/03/23 21:28:52;;;;;;;13.93;8.05;;;;;;;5.73;57.64;98533.47;10023084;29;20508;-77
2021/03/23 21:34:44;;;;;;;12.88;8.65;;;;;;;5.75;57.24;98541.97;10034580;29;20049;-75
2021/03/23 21:40:05;;;;;;;11.80;8.00;;;;;;;5.77;57.61;98533.09;10022797;29;20046;-75
2021/03/23 21:45:58;;;;;;;11.45;7.68;;;;;;;5.71;58.05;98538.81;10033166;29;20073;-76
2021/03/23 21:51:21;;;;;;;9.88;7.50;;;;;;;5.64;57.80;98531.19;10034951;29;20068;-76
2021/03/23 21:57:11;;;;;;;10.65;7.78;;;;;;;5.62;58.37;98536.53;10034003;29;20053;-76
2021/03/23 22:02:31;;;;;;;12.88;8.40;;;;;;;5.57;57.95;98534.63;10035347;29;20490;-76
2021/03/23 22:07:59;;;;;;;11.80;8.15;;;;;;;5.57;57.89;98534.63;10036269;29;20049;-76
2021/03/23 22:13:51;;;;;;;12.15;8.35;;;;;;;5.59;58.45;98538.31;10043930;29;20049;-75
2021/03/23 22:26:57;;;;;;;10.98;7.60;;;;;;;5.50;58.30;98529.75;9944065;29;20156;-76
2021/03/23 22:32:16;;;;;;;11.90;7.68;;;;;;;5.49;58.24;98533.81;9932746;29;20071;-76
2021/03/23 22:37:39;;;;;;;11.23;7.25;;;;;;;5.54;58.62;98527.41;9931830;29;20403;-76
2021/03/23 22:43:05;;;;;;;10.10;6.95;;;;;;;5.56;58.73;98527.59;9931127;29;20100;-76
2021/03/23 22:48:28;;;;;;;8.18;6.78;;;;;;;5.59;58.45;98537.59;9932188;29;20062;-76
2021/03/23 22:53:48;;;;;;;8.48;6.68;;;;;;;5.64;58.83;98531.19;9932551;29;20055;-76
2021/03/23 22:59:08;;;;;;;8.80;6.72;;;;;;;5.64;58.49;98529.16;9968349;29;20046;-75
2021/03/23 23:04:30;;;;;;;9.15;6.82;;;;;;;5.65;58.87;98532.66;9969359;29;20058;-76
2021/03/23 23:09:54;;;;;;;8.77;6.65;;;;;;;5.65;58.29;98530.63;9969013;29;20057;-76
2021/03/23 23:15:35;;;;;;;11.30;7.75;;;;;;;5.60;58.76;98523.22;10037081;29;20054;-76
2021/03/23 23:21:04;;;;;;;11.10;7.00;;;;;;;5.60;58.73;98526.00;10037673;29;20049;-76
2021/03/23 23:26:24;;;;;;;9.88;7.45;;;;;;;5.60;58.74;98530.78;10042882;29;20477;-75
2021/03/23 23:31:45;;;;;;;11.30;7.50;;;;;;;5.59;59.00;98526.50;10041898;29;20082;-76
2021/03/23 23:37:07;;;;;;;9.88;7.38;;;;;;;5.62;59.03;98528.22;10055538;29;20045;-76
2021/03/23 23:42:57;;;;;;;10.32;7.63;;;;;;;5.57;58.90;98535.34;10049401;29;20132;-75
2021/03/23 23:48:20;;;;;;;10.65;6.93;;;;;;;5.58;58.51;98534.06;10040257;29;20045;-76
2021/03/23 23:53:40;;;;;;;11.07;7.63;;;;;;;5.57;58.98;98545.69;10027869;29;20045;-76
2021/03/23 23:59:00;;;;;;;11.68;7.70;;;;;;;5.51;58.84;98539.56;10040848;29;20393;-77
